Terminal Aerodrome Forecast
Issued by NWS

Home | Current Version | Previous Version | Text Only | Print | Product List | Glossary On
Versions: 1 2 3 4 5 6 7 8 9 10 11 12 13 14 15 16 17 18 19 20 21 22 23 24
000
FTUS43 KDVN 291700 RRA
TAFBRL
TAF
KBRL 291745Z 2918/3018 26005KT P6SM SCT050
     FM300400 34007KT P6SM SCT020 SCT080
     FM300600 02011KT 6SM BR SCT010 BKN025
     FM300800 03007KT 4SM BR SCT006 BKN015
     FM301500 05010KT P6SM BKN020=

USA.gov is the U.S. government's official web portal to all federal, state and local government web resources and services.